sensor_id;sensor_type;location;lat;lon;timestamp;pressure;altitude;pressure_sealevel;temperature;humidity
61898;BME280;47850;50.274;18.908;2023-04-26T00:01:40;97562.77;;;6.01;71.58
61898;BME280;47850;50.274;18.908;2023-04-26T00:04:08;97567.94;;;5.99;71.14
61898;BME280;47850;50.274;18.908;2023-04-26T00:06:36;97566.67;;;5.97;70.93
61898;BME280;47850;50.274;18.908;2023-04-26T00:09:03;97569.38;;;5.94;71.08
61898;BME280;47850;50.274;18.908;2023-04-26T00:11:32;97573.61;;;5.90;70.94
61898;BME280;47850;50.274;18.908;2023-04-26T00:13:59;97575.07;;;5.88;71.18
61898;BME280;47850;50.274;18.908;2023-04-26T00:16:27;97571.64;;;5.86;71.38
61898;BME280;47850;50.274;18.908;2023-04-26T00:18:56;97574.11;;;5.84;71.58
61898;BME280;47850;50.274;18.908;2023-04-26T00:21:24;97576.88;;;5.82;71.81
61898;BME280;47850;50.274;18.908;2023-04-26T00:23:52;97570.48;;;5.80;71.87
61898;BME280;47850;50.274;18.908;2023-04-26T00:26:19;97573.25;;;5.80;71.72
61898;BME280;47850;50.274;18.908;2023-04-26T00:28:47;97572.70;;;5.77;71.61
61898;BME280;47850;50.274;18.908;2023-04-26T00:31:15;97571.73;;;5.74;71.24
61898;BME280;47850;50.274;18.908;2023-04-26T00:33:43;97571.02;;;5.72;70.95
61898;BME280;47850;50.274;18.908;2023-04-26T00:36:11;97566.40;;;5.70;70.89
61898;BME280;47850;50.274;18.908;2023-04-26T00:38:40;97565.38;;;5.67;70.22
61898;BME280;47850;50.274;18.908;2023-04-26T00:41:07;97560.98;;;5.63;69.97
61898;BME280;47850;50.274;18.908;2023-04-26T00:43:35;97558.86;;;5.58;69.78
61898;BME280;47850;50.274;18.908;2023-04-26T00:46:02;97569.17;;;5.53;69.64
61898;BME280;47850;50.274;18.908;2023-04-26T00:48:30;97575.77;;;5.48;69.43
61898;BME280;47850;50.274;18.908;2023-04-26T00:50:58;97580.25;;;5.43;68.62
61898;BME280;47850;50.274;18.908;2023-04-26T00:53:26;97580.87;;;5.36;68.21
61898;BME280;47850;50.274;18.908;2023-04-26T00:55:54;97584.68;;;5.28;67.53
61898;BME280;47850;50.274;18.908;2023-04-26T00:58:22;97585.36;;;5.21;67.43
61898;BME280;47850;50.274;18.908;2023-04-26T01:00:49;97587.59;;;5.14;67.59
61898;BME280;47850;50.274;18.908;2023-04-26T01:03:18;97585.17;;;5.07;67.75
61898;BME280;47850;50.274;18.908;2023-04-26T01:05:45;97587.96;;;4.99;67.66
61898;BME280;47850;50.274;18.908;2023-04-26T01:08:13;97585.48;;;4.92;67.95
61898;BME280;47850;50.274;18.908;2023-04-26T01:10:43;97585.23;;;4.85;67.93
61898;BME280;47850;50.274;18.908;2023-04-26T01:13:11;97588.45;;;4.79;67.74
61898;BME280;47850;50.274;18.908;2023-04-26T01:15:46;97591.35;;;4.74;67.86
61898;BME280;47850;50.274;18.908;2023-04-26T01:18:14;97592.16;;;4.67;67.81
61898;BME280;47850;50.274;18.908;2023-04-26T01:20:42;97597.31;;;4.59;68.10
61898;BME280;47850;50.274;18.908;2023-04-26T01:23:10;97595.67;;;4.53;68.42
61898;BME280;47850;50.274;18.908;2023-04-26T01:25:38;97595.67;;;4.46;68.82
61898;BME280;47850;50.274;18.908;2023-04-26T01:28:06;97601.38;;;4.40;69.45
61898;BME280;47850;50.274;18.908;2023-04-26T01:30:34;97602.80;;;4.34;69.47
61898;BME280;47850;50.274;18.908;2023-04-26T01:33:01;97608.06;;;4.29;70.20
61898;BME280;47850;50.274;18.908;2023-04-26T01:35:29;97607.71;;;4.23;70.12
61898;BME280;47850;50.274;18.908;2023-04-26T01:37:57;97611.40;;;4.18;70.13
61898;BME280;47850;50.274;18.908;2023-04-26T01:40:24;97609.89;;;4.13;70.26
61898;BME280;47850;50.274;18.908;2023-04-26T01:42:52;97612.44;;;4.10;70.15
61898;BME280;47850;50.274;18.908;2023-04-26T01:45:20;97613.90;;;4.05;70.31
61898;BME280;47850;50.274;18.908;2023-04-26T01:47:47;97618.22;;;4.00;70.21
61898;BME280;47850;50.274;18.908;2023-04-26T01:50:15;97616.73;;;3.94;70.29
61898;BME280;47850;50.274;18.908;2023-04-26T01:52:43;97612.11;;;3.89;70.34
61898;BME280;47850;50.274;18.908;2023-04-26T01:55:10;97611.93;;;3.86;70.55
61898;BME280;47850;50.274;18.908;2023-04-26T01:57:38;97614.03;;;3.82;70.62
61898;BME280;47850;50.274;18.908;2023-04-26T02:00:06;97617.52;;;3.77;70.88
61898;BME280;47850;50.274;18.908;2023-04-26T02:02:35;97617.70;;;3.72;70.88
61898;BME280;47850;50.274;18.908;2023-04-26T02:05:02;97617.31;;;3.68;71.24
61898;BME280;47850;50.274;18.908;2023-04-26T02:07:30;97616.08;;;3.64;71.29
61898;BME280;47850;50.274;18.908;2023-04-26T02:09:58;97620.98;;;3.60;71.66
61898;BME280;47850;50.274;18.908;2023-04-26T02:12:25;97619.41;;;3.55;71.75
61898;BME280;47850;50.274;18.908;2023-04-26T02:14:53;97621.37;;;3.52;71.99
61898;BME280;47850;50.274;18.908;2023-04-26T02:17:21;97620.71;;;3.49;72.40
61898;BME280;47850;50.274;18.908;2023-04-26T02:19:49;97615.73;;;3.45;72.63
61898;BME280;47850;50.274;18.908;2023-04-26T02:22:17;97616.64;;;3.42;72.90
61898;BME280;47850;50.274;18.908;2023-04-26T02:24:45;97620.87;;;3.39;72.98
61898;BME280;47850;50.274;18.908;2023-04-26T02:27:13;97616.11;;;3.36;72.92
61898;BME280;47850;50.274;18.908;2023-04-26T02:29:40;97613.39;;;3.33;73.18
61898;BME280;47850;50.274;18.908;2023-04-26T02:32:08;97619.42;;;3.29;73.23
61898;BME280;47850;50.274;18.908;2023-04-26T02:34:36;97615.89;;;3.24;73.46
61898;BME280;47850;50.274;18.908;2023-04-26T02:37:04;97613.79;;;3.20;73.49
61898;BME280;47850;50.274;18.908;2023-04-26T02:39:31;97616.63;;;3.15;73.66
61898;BME280;47850;50.274;18.908;2023-04-26T02:41:59;97617.80;;;3.11;73.91
61898;BME280;47850;50.274;18.908;2023-04-26T02:44:29;97610.68;;;3.07;74.08
61898;BME280;47850;50.274;18.908;2023-04-26T02:46:57;97611.40;;;3.04;74.22
61898;BME280;47850;50.274;18.908;2023-04-26T02:49:25;97611.70;;;3.01;74.47
61898;BME280;47850;50.274;18.908;2023-04-26T02:51:52;97609.30;;;2.98;74.70
61898;BME280;47850;50.274;18.908;2023-04-26T02:54:20;97613.03;;;2.97;74.70
61898;BME280;47850;50.274;18.908;2023-04-26T02:56:48;97614.78;;;2.93;74.98
61898;BME280;47850;50.274;18.908;2023-04-26T02:59:15;97616.39;;;2.89;74.93
61898;BME280;47850;50.274;18.908;2023-04-26T03:01:43;97623.88;;;2.88;75.45
61898;BME280;47850;50.274;18.908;2023-04-26T03:04:11;97621.17;;;2.85;75.26
61898;BME280;47850;50.274;18.908;2023-04-26T03:06:38;97622.67;;;2.83;75.48
61898;BME280;47850;50.274;18.908;2023-04-26T03:09:06;97624.10;;;2.81;75.49
61898;BME280;47850;50.274;18.908;2023-04-26T03:11:34;97629.98;;;2.80;75.50
61898;BME280;47850;50.274;18.908;2023-04-26T03:14:01;97634.80;;;2.77;75.42
61898;BME280;47850;50.274;18.908;2023-04-26T03:16:29;97633.48;;;2.75;75.65
61898;BME280;47850;50.274;18.908;2023-04-26T03:18:58;97634.77;;;2.72;75.94
61898;BME280;47850;50.274;18.908;2023-04-26T03:21:25;97635.88;;;2.69;75.99
61898;BME280;47850;50.274;18.908;2023-04-26T03:23:54;97641.08;;;2.66;76.07
61898;BME280;47850;50.274;18.908;2023-04-26T03:26:21;97645.02;;;2.63;76.07
61898;BME280;47850;50.274;18.908;2023-04-26T03:28:49;97648.81;;;2.60;76.37
61898;BME280;47850;50.274;18.908;2023-04-26T03:31:17;97649.98;;;2.57;76.80
61898;BME280;47850;50.274;18.908;2023-04-26T03:33:45;97653.53;;;2.55;76.61
61898;BME280;47850;50.274;18.908;2023-04-26T03:36:13;97657.24;;;2.54;76.54
61898;BME280;47850;50.274;18.908;2023-04-26T03:38:40;97660.97;;;2.52;76.66
61898;BME280;47850;50.274;18.908;2023-04-26T03:41:09;97662.39;;;2.50;76.88
61898;BME280;47850;50.274;18.908;2023-04-26T03:43:36;97667.62;;;2.49;76.89
61898;BME280;47850;50.274;18.908;2023-04-26T03:46:04;97672.91;;;2.47;77.06
61898;BME280;47850;50.274;18.908;2023-04-26T03:48:32;97670.82;;;2.44;77.10
61898;BME280;47850;50.274;18.908;2023-04-26T03:51:00;97669.69;;;2.45;76.85
61898;BME280;47850;50.274;18.908;2023-04-26T03:53:28;97670.66;;;2.44;76.88
61898;BME280;47850;50.274;18.908;2023-04-26T03:55:56;97671.45;;;2.45;76.83
61898;BME280;47850;50.274;18.908;2023-04-26T03:58:24;97675.61;;;2.45;76.77
61898;BME280;47850;50.274;18.908;2023-04-26T04:00:55;97678.29;;;2.46;76.67
61898;BME280;47850;50.274;18.908;2023-04-26T04:03:24;97678.88;;;2.49;76.56
61898;BME280;47850;50.274;18.908;2023-04-26T04:05:52;97683.38;;;2.50;76.62
61898;BME280;47850;50.274;18.908;2023-04-26T04:08:20;97683.96;;;2.51;76.29
61898;BME280;47850;50.274;18.908;2023-04-26T04:10:47;97687.95;;;2.53;76.19
61898;BME280;47850;50.274;18.908;2023-04-26T04:13:15;97685.99;;;2.55;76.17
61898;BME280;47850;50.274;18.908;2023-04-26T04:15:43;97688.56;;;2.58;76.21
61898;BME280;47850;50.274;18.908;2023-04-26T04:18:10;97691.30;;;2.58;76.12
61898;BME280;47850;50.274;18.908;2023-04-26T04:20:39;97694.36;;;2.60;76.01
61898;BME280;47850;50.274;18.908;2023-04-26T04:23:07;97699.73;;;2.63;75.98
61898;BME280;47850;50.274;18.908;2023-04-26T04:25:36;97701.02;;;2.65;75.62
61898;BME280;47850;50.274;18.908;2023-04-26T04:28:05;97706.59;;;2.67;75.35
61898;BME280;47850;50.274;18.908;2023-04-26T04:30:32;97710.50;;;2.70;75.53
61898;BME280;47850;50.274;18.908;2023-04-26T04:33:00;97713.61;;;2.74;75.29
61898;BME280;47850;50.274;18.908;2023-04-26T04:35:30;97714.34;;;2.77;75.01
61898;BME280;47850;50.274;18.908;2023-04-26T04:38:00;97717.77;;;2.80;75.03
61898;BME280;47850;50.274;18.908;2023-04-26T04:40:29;97719.52;;;2.83;74.92
61898;BME280;47850;50.274;18.908;2023-04-26T04:42:57;97719.30;;;2.85;74.87
61898;BME280;47850;50.274;18.908;2023-04-26T04:45:27;97722.29;;;2.86;74.75
61898;BME280;47850;50.274;18.908;2023-04-26T04:47:55;97722.02;;;2.89;74.54
61898;BME280;47850;50.274;18.908;2023-04-26T04:50:23;97718.65;;;2.93;74.62
61898;BME280;47850;50.274;18.908;2023-04-26T04:52:50;97720.50;;;2.97;74.19
61898;BME280;47850;50.274;18.908;2023-04-26T04:55:18;97726.66;;;3.02;74.32
61898;BME280;47850;50.274;18.908;2023-04-26T04:57:46;97727.22;;;3.07;73.99
61898;BME280;47850;50.274;18.908;2023-04-26T05:00:13;97725.64;;;3.11;73.95
61898;BME280;47850;50.274;18.908;2023-04-26T05:02:42;97725.96;;;3.16;73.62
61898;BME280;47850;50.274;18.908;2023-04-26T05:05:09;97726.94;;;3.21;73.55
61898;BME280;47850;50.274;18.908;2023-04-26T05:07:37;97726.81;;;3.24;73.26
61898;BME280;47850;50.274;18.908;2023-04-26T05:10:05;97730.06;;;3.29;73.33
61898;BME280;47850;50.274;18.908;2023-04-26T05:12:33;97739.21;;;3.31;73.01
61898;BME280;47850;50.274;18.908;2023-04-26T05:15:01;97740.23;;;3.32;72.86
61898;BME280;47850;50.274;18.908;2023-04-26T05:17:30;97735.87;;;3.32;72.42
61898;BME280;47850;50.274;18.908;2023-04-26T05:19:58;97740.61;;;3.32;72.53
61898;BME280;47850;50.274;18.908;2023-04-26T05:22:26;97743.20;;;3.32;72.62
61898;BME280;47850;50.274;18.908;2023-04-26T05:24:55;97750.45;;;3.34;72.40
61898;BME280;47850;50.274;18.908;2023-04-26T05:27:22;97750.77;;;3.36;72.19
61898;BME280;47850;50.274;18.908;2023-04-26T05:29:50;97745.83;;;3.40;72.35
61898;BME280;47850;50.274;18.908;2023-04-26T05:32:17;97748.30;;;3.46;72.27
61898;BME280;47850;50.274;18.908;2023-04-26T05:34:45;97748.09;;;3.50;72.00
61898;BME280;47850;50.274;18.908;2023-04-26T05:37:13;97746.35;;;3.54;71.90
61898;BME280;47850;50.274;18.908;2023-04-26T05:39:40;97749.66;;;3.56;71.34
61898;BME280;47850;50.274;18.908;2023-04-26T05:42:08;97747.97;;;3.60;71.27
61898;BME280;47850;50.274;18.908;2023-04-26T05:44:36;97747.77;;;3.64;71.08
61898;BME280;47850;50.274;18.908;2023-04-26T05:47:03;97751.98;;;3.70;70.85
61898;BME280;47850;50.274;18.908;2023-04-26T05:49:31;97755.11;;;3.75;70.40
61898;BME280;47850;50.274;18.908;2023-04-26T05:51:58;97752.20;;;3.79;70.00
61898;BME280;47850;50.274;18.908;2023-04-26T05:54:27;97751.89;;;3.84;70.08
61898;BME280;47850;50.274;18.908;2023-04-26T05:56:54;97756.15;;;3.91;69.99
61898;BME280;47850;50.274;18.908;2023-04-26T05:59:22;97755.66;;;3.96;69.75
61898;BME280;47850;50.274;18.908;2023-04-26T06:01:50;97762.25;;;3.99;69.03
61898;BME280;47850;50.274;18.908;2023-04-26T06:04:18;97759.83;;;4.04;69.27
61898;BME280;47850;50.274;18.908;2023-04-26T06:06:45;97763.67;;;4.08;68.61
61898;BME280;47850;50.274;18.908;2023-04-26T06:09:13;97774.12;;;4.15;68.52
61898;BME280;47850;50.274;18.908;2023-04-26T06:11:40;97772.95;;;4.18;67.35
61898;BME280;47850;50.274;18.908;2023-04-26T06:14:08;97774.26;;;4.22;67.44
61898;BME280;47850;50.274;18.908;2023-04-26T06:16:36;97775.08;;;4.27;67.25
61898;BME280;47850;50.274;18.908;2023-04-26T06:19:04;97779.56;;;4.30;66.80
61898;BME280;47850;50.274;18.908;2023-04-26T06:21:32;97775.52;;;4.34;66.84
61898;BME280;47850;50.274;18.908;2023-04-26T06:24:00;97779.45;;;4.40;66.69
61898;BME280;47850;50.274;18.908;2023-04-26T06:26:27;97788.35;;;4.50;66.62
61898;BME280;47850;50.274;18.908;2023-04-26T06:28:55;97787.14;;;4.56;66.06
61898;BME280;47850;50.274;18.908;2023-04-26T06:31:23;97789.08;;;4.65;65.55
61898;BME280;47850;50.274;18.908;2023-04-26T06:33:51;97800.23;;;4.72;64.74
61898;BME280;47850;50.274;18.908;2023-04-26T06:36:19;97791.63;;;4.76;64.87
61898;BME280;47850;50.274;18.908;2023-04-26T06:38:46;97794.42;;;4.86;64.66
61898;BME280;47850;50.274;18.908;2023-04-26T06:41:14;97791.68;;;5.01;64.65
61898;BME280;47850;50.274;18.908;2023-04-26T06:43:42;97787.95;;;5.24;64.11
61898;BME280;47850;50.274;18.908;2023-04-26T06:46:10;97784.95;;;5.46;63.32
61898;BME280;47850;50.274;18.908;2023-04-26T06:48:37;97787.26;;;5.64;63.48
61898;BME280;47850;50.274;18.908;2023-04-26T06:51:06;97784.49;;;5.74;62.83
61898;BME280;47850;50.274;18.908;2023-04-26T06:53:34;97782.02;;;5.90;63.14
61898;BME280;47850;50.274;18.908;2023-04-26T06:56:03;97777.91;;;6.14;62.48
61898;BME280;47850;50.274;18.908;2023-04-26T06:58:31;97779.89;;;6.30;61.76
61898;BME280;47850;50.274;18.908;2023-04-26T07:00:59;97784.52;;;6.40;61.40
61898;BME280;47850;50.274;18.908;2023-04-26T07:03:27;97789.86;;;6.46;60.48
61898;BME280;47850;50.274;18.908;2023-04-26T07:05:55;97788.64;;;6.45;59.63
61898;BME280;47850;50.274;18.908;2023-04-26T07:08:23;97790.92;;;6.42;59.23
61898;BME280;47850;50.274;18.908;2023-04-26T07:10:51;97788.21;;;6.44;59.75
61898;BME280;47850;50.274;18.908;2023-04-26T07:13:19;97788.55;;;6.63;59.98
61898;BME280;47850;50.274;18.908;2023-04-26T07:15:47;97792.09;;;6.76;59.04
61898;BME280;47850;50.274;18.908;2023-04-26T07:18:14;97798.06;;;6.77;58.14
61898;BME280;47850;50.274;18.908;2023-04-26T07:20:42;97797.91;;;6.72;58.01
61898;BME280;47850;50.274;18.908;2023-04-26T07:23:10;97795.68;;;6.72;58.40
61898;BME280;47850;50.274;18.908;2023-04-26T07:25:37;97797.63;;;6.73;58.28
61898;BME280;47850;50.274;18.908;2023-04-26T07:28:05;97795.88;;;6.71;58.67
61898;BME280;47850;50.274;18.908;2023-04-26T07:30:33;97805.08;;;6.68;58.70
61898;BME280;47850;50.274;18.908;2023-04-26T07:33:00;97803.50;;;6.72;58.38
61898;BME280;47850;50.274;18.908;2023-04-26T07:35:29;97806.05;;;6.72;57.81
61898;BME280;47850;50.274;18.908;2023-04-26T07:37:57;97808.80;;;6.75;57.86
61898;BME280;47850;50.274;18.908;2023-04-26T07:40:24;97803.60;;;6.92;57.20
61898;BME280;47850;50.274;18.908;2023-04-26T07:42:52;97805.69;;;7.11;56.91
61898;BME280;47850;50.274;18.908;2023-04-26T07:45:20;97806.35;;;7.25;56.47
61898;BME280;47850;50.274;18.908;2023-04-26T07:47:48;97812.21;;;7.35;55.50
61898;BME280;47850;50.274;18.908;2023-04-26T07:50:15;97808.05;;;7.32;55.34
61898;BME280;47850;50.274;18.908;2023-04-26T07:52:43;97814.91;;;7.21;54.47
61898;BME280;47850;50.274;18.908;2023-04-26T07:55:11;97816.41;;;7.12;54.56
61898;BME280;47850;50.274;18.908;2023-04-26T07:57:39;97812.35;;;7.04;54.18
61898;BME280;47850;50.274;18.908;2023-04-26T08:00:07;97813.91;;;7.07;53.49
61898;BME280;47850;50.274;18.908;2023-04-26T08:02:36;97816.80;;;7.14;53.40
61898;BME280;47850;50.274;18.908;2023-04-26T08:05:04;97821.95;;;7.24;52.91
61898;BME280;47850;50.274;18.908;2023-04-26T08:07:32;97832.27;;;7.30;52.30
61898;BME280;47850;50.274;18.908;2023-04-26T08:10:00;97828.30;;;7.36;51.46
61898;BME280;47850;50.274;18.908;2023-04-26T08:12:27;97835.22;;;7.42;50.12
61898;BME280;47850;50.274;18.908;2023-04-26T08:14:55;97832.41;;;7.39;50.25
61898;BME280;47850;50.274;18.908;2023-04-26T08:17:23;97823.77;;;7.44;50.41
61898;BME280;47850;50.274;18.908;2023-04-26T08:19:50;97828.02;;;7.53;49.94
61898;BME280;47850;50.274;18.908;2023-04-26T08:22:18;97829.16;;;7.64;50.06
61898;BME280;47850;50.274;18.908;2023-04-26T08:24:49;97831.23;;;7.73;50.11
61898;BME280;47850;50.274;18.908;2023-04-26T08:27:17;97826.90;;;7.75;49.69
61898;BME280;47850;50.274;18.908;2023-04-26T08:29:45;97831.44;;;7.85;49.64
61898;BME280;47850;50.274;18.908;2023-04-26T08:32:13;97831.25;;;7.84;49.19
61898;BME280;47850;50.274;18.908;2023-04-26T08:34:41;97833.04;;;7.79;49.32
61898;BME280;47850;50.274;18.908;2023-04-26T08:37:09;97833.80;;;7.72;48.55
61898;BME280;47850;50.274;18.908;2023-04-26T08:39:37;97834.16;;;7.71;48.66
61898;BME280;47850;50.274;18.908;2023-04-26T08:42:09;97842.06;;;7.69;47.32
61898;BME280;47850;50.274;18.908;2023-04-26T08:44:42;97840.91;;;7.56;46.01
61898;BME280;47850;50.274;18.908;2023-04-26T08:50:00;97842.91;;;7.52;47.93
61898;BME280;47850;50.274;18.908;2023-04-26T08:52:31;97840.65;;;7.59;46.68
61898;BME280;47850;50.274;18.908;2023-04-26T08:54:59;97837.25;;;7.74;46.51
61898;BME280;47850;50.274;18.908;2023-04-26T08:57:27;97831.45;;;7.84;46.82
61898;BME280;47850;50.274;18.908;2023-04-26T08:59:58;97833.95;;;7.93;47.03
61898;BME280;47850;50.274;18.908;2023-04-26T09:02:25;97836.75;;;8.03;46.56
61898;BME280;47850;50.274;18.908;2023-04-26T09:04:53;97853.40;;;7.88;44.23
61898;BME280;47850;50.274;18.908;2023-04-26T09:07:23;97839.92;;;7.73;45.88
61898;BME280;47850;50.274;18.908;2023-04-26T09:09:53;97842.67;;;7.75;46.38
61898;BME280;47850;50.274;18.908;2023-04-26T09:12:22;97839.70;;;7.95;46.83
61898;BME280;47850;50.274;18.908;2023-04-26T09:14:50;97832.30;;;8.21;46.46
61898;BME280;47850;50.274;18.908;2023-04-26T09:17:30;97828.58;;;8.33;45.86
61898;BME280;47850;50.274;18.908;2023-04-26T09:19:59;97827.27;;;8.35;46.19
61898;BME280;47850;50.274;18.908;2023-04-26T09:22:31;97828.70;;;8.33;45.24
61898;BME280;47850;50.274;18.908;2023-04-26T09:25:00;97833.45;;;8.33;45.25
61898;BME280;47850;50.274;18.908;2023-04-26T09:27:31;97839.58;;;8.36;44.14
61898;BME280;47850;50.274;18.908;2023-04-26T09:32:44;97845.42;;;8.16;44.39
61898;BME280;47850;50.274;18.908;2023-04-26T09:38:05;97844.18;;;8.00;45.47
61898;BME280;47850;50.274;18.908;2023-04-26T09:40:34;97846.84;;;8.18;44.21
61898;BME280;47850;50.274;18.908;2023-04-26T09:43:10;97837.84;;;8.30;43.06
61898;BME280;47850;50.274;18.908;2023-04-26T09:45:45;97832.40;;;8.40;41.99
61898;BME280;47850;50.274;18.908;2023-04-26T09:50:44;97842.30;;;8.63;41.37
61898;BME280;47850;50.274;18.908;2023-04-26T09:53:26;97832.42;;;8.53;40.77
61898;BME280;47850;50.274;18.908;2023-04-26T09:55:54;97840.35;;;8.36;39.07
61898;BME280;47850;50.274;18.908;2023-04-26T09:58:22;97836.27;;;8.26;39.17
61898;BME280;47850;50.274;18.908;2023-04-26T10:00:51;97839.83;;;8.33;39.67
61898;BME280;47850;50.274;18.908;2023-04-26T10:03:19;97832.02;;;8.49;40.68
61898;BME280;47850;50.274;18.908;2023-04-26T10:05:47;97830.67;;;8.73;40.32
61898;BME280;47850;50.274;18.908;2023-04-26T10:08:15;97832.86;;;8.97;38.84
61898;BME280;47850;50.274;18.908;2023-04-26T10:10:43;97836.23;;;9.21;37.01
61898;BME280;47850;50.274;18.908;2023-04-26T10:13:12;97845.22;;;9.41;37.02
61898;BME280;47850;50.274;18.908;2023-04-26T10:15:41;97839.91;;;9.46;37.33
61898;BME280;47850;50.274;18.908;2023-04-26T10:18:09;97846.46;;;9.27;37.44
61898;BME280;47850;50.274;18.908;2023-04-26T10:20:40;97842.80;;;9.13;38.25
61898;BME280;47850;50.274;18.908;2023-04-26T10:23:11;97839.39;;;9.12;37.78
61898;BME280;47850;50.274;18.908;2023-04-26T10:25:40;97835.10;;;9.19;38.42
61898;BME280;47850;50.274;18.908;2023-04-26T10:28:11;97837.06;;;9.19;38.53
61898;BME280;47850;50.274;18.908;2023-04-26T10:30:55;97848.77;;;9.20;37.86
61898;BME280;47850;50.274;18.908;2023-04-26T10:33:24;97845.47;;;9.29;37.79
61898;BME280;47850;50.274;18.908;2023-04-26T10:38:29;97838.92;;;9.77;38.69
61898;BME280;47850;50.274;18.908;2023-04-26T10:43:43;97851.17;;;9.92;37.13
61898;BME280;47850;50.274;18.908;2023-04-26T10:48:57;97840.25;;;9.94;38.28
61898;BME280;47850;50.274;18.908;2023-04-26T10:51:25;97846.69;;;9.96;38.56
61898;BME280;47850;50.274;18.908;2023-04-26T10:59:09;97852.04;;;9.51;39.13
61898;BME280;47850;50.274;18.908;2023-04-26T11:01:38;97854.48;;;9.43;37.38
61898;BME280;47850;50.274;18.908;2023-04-26T11:04:07;97851.73;;;9.38;38.19
61898;BME280;47850;50.274;18.908;2023-04-26T11:06:48;97846.89;;;9.44;38.01
61898;BME280;47850;50.274;18.908;2023-04-26T11:09:37;97846.48;;;9.75;36.64
61898;BME280;47850;50.274;18.908;2023-04-26T11:12:06;97846.52;;;9.86;36.10
61898;BME280;47850;50.274;18.908;2023-04-26T11:14:38;97843.52;;;9.75;36.27
61898;BME280;47850;50.274;18.908;2023-04-26T11:17:06;97848.96;;;9.60;36.61
61898;BME280;47850;50.274;18.908;2023-04-26T11:19:35;97847.39;;;9.43;36.54
61898;BME280;47850;50.274;18.908;2023-04-26T11:22:05;97849.48;;;9.41;37.20
61898;BME280;47850;50.274;18.908;2023-04-26T11:24:33;97857.15;;;9.40;36.70
61898;BME280;47850;50.274;18.908;2023-04-26T11:27:08;97863.08;;;9.39;35.37
61898;BME280;47850;50.274;18.908;2023-04-26T11:29:37;97853.98;;;9.58;34.64
61898;BME280;47850;50.274;18.908;2023-04-26T11:32:05;97850.83;;;9.91;34.48
61898;BME280;47850;50.274;18.908;2023-04-26T11:34:37;97839.58;;;10.36;33.75
61898;BME280;47850;50.274;18.908;2023-04-26T11:37:06;97842.88;;;10.97;32.98
61898;BME280;47850;50.274;18.908;2023-04-26T11:39:34;97852.84;;;11.29;34.43
61898;BME280;47850;50.274;18.908;2023-04-26T11:42:11;97854.44;;;11.24;35.92
61898;BME280;47850;50.274;18.908;2023-04-26T11:44:39;97858.64;;;10.96;35.44
61898;BME280;47850;50.274;18.908;2023-04-26T11:47:07;97855.37;;;10.73;36.55
61898;BME280;47850;50.274;18.908;2023-04-26T11:49:35;97862.58;;;10.61;37.00
61898;BME280;47850;50.274;18.908;2023-04-26T11:52:04;97864.80;;;10.67;37.25
61898;BME280;47850;50.274;18.908;2023-04-26T11:54:33;97861.24;;;11.08;36.97
61898;BME280;47850;50.274;18.908;2023-04-26T11:57:11;97867.64;;;11.55;36.23
61898;BME280;47850;50.274;18.908;2023-04-26T11:59:39;97869.24;;;11.80;35.79
61898;BME280;47850;50.274;18.908;2023-04-26T12:02:08;97861.25;;;11.77;36.46
61898;BME280;47850;50.274;18.908;2023-04-26T12:04:36;97870.89;;;11.55;34.81
61898;BME280;47850;50.274;18.908;2023-04-26T12:07:06;97865.25;;;11.15;34.48
61898;BME280;47850;50.274;18.908;2023-04-26T12:09:38;97866.03;;;11.03;34.65
61898;BME280;47850;50.274;18.908;2023-04-26T12:12:06;97862.58;;;11.16;34.14
61898;BME280;47850;50.274;18.908;2023-04-26T12:14:35;97858.52;;;11.16;34.29
61898;BME280;47850;50.274;18.908;2023-04-26T12:17:03;97862.58;;;11.31;34.63
61898;BME280;47850;50.274;18.908;2023-04-26T12:19:33;97857.27;;;11.89;33.73
61898;BME280;47850;50.274;18.908;2023-04-26T12:22:00;97860.00;;;12.42;33.19
61898;BME280;47850;50.274;18.908;2023-04-26T12:24:29;97869.16;;;12.52;32.46
61898;BME280;47850;50.274;18.908;2023-04-26T12:27:00;97883.44;;;12.26;33.13
61898;BME280;47850;50.274;18.908;2023-04-26T12:29:29;97886.27;;;11.79;34.26
61898;BME280;47850;50.274;18.908;2023-04-26T12:31:58;97885.27;;;11.57;35.49
61898;BME280;47850;50.274;18.908;2023-04-26T12:34:26;97897.86;;;11.42;35.99
61898;BME280;47850;50.274;18.908;2023-04-26T12:36:54;97891.76;;;11.42;35.40
61898;BME280;47850;50.274;18.908;2023-04-26T12:39:22;97882.77;;;11.66;34.67
61898;BME280;47850;50.274;18.908;2023-04-26T12:41:50;97889.55;;;11.96;35.17
61898;BME280;47850;50.274;18.908;2023-04-26T12:44:18;97886.84;;;12.36;35.39
61898;BME280;47850;50.274;18.908;2023-04-26T12:46:45;97882.16;;;12.67;35.17
61898;BME280;47850;50.274;18.908;2023-04-26T12:49:13;97881.58;;;12.78;34.60
61898;BME280;47850;50.274;18.908;2023-04-26T12:51:41;97879.39;;;13.20;32.77
61898;BME280;47850;50.274;18.908;2023-04-26T12:54:08;97873.19;;;13.61;31.52
61898;BME280;47850;50.274;18.908;2023-04-26T12:56:36;97875.55;;;14.15;31.15
61898;BME280;47850;50.274;18.908;2023-04-26T12:59:09;97871.23;;;14.22;30.31
61898;BME280;47850;50.274;18.908;2023-04-26T13:01:37;97878.84;;;14.47;29.49
61898;BME280;47850;50.274;18.908;2023-04-26T13:04:05;97870.90;;;14.86;28.07
61898;BME280;47850;50.274;18.908;2023-04-26T13:06:33;97880.89;;;14.59;28.07
61898;BME280;47850;50.274;18.908;2023-04-26T13:09:01;97881.72;;;14.02;28.22
61898;BME280;47850;50.274;18.908;2023-04-26T13:11:29;97878.23;;;13.43;29.40
61898;BME280;47850;50.274;18.908;2023-04-26T13:13:57;97880.78;;;13.02;30.52
61898;BME280;47850;50.274;18.908;2023-04-26T13:16:25;97888.38;;;12.78;31.20
61898;BME280;47850;50.274;18.908;2023-04-26T13:18:52;97896.45;;;12.69;32.48
61898;BME280;47850;50.274;18.908;2023-04-26T13:21:21;97896.41;;;12.77;32.71
61898;BME280;47850;50.274;18.908;2023-04-26T13:23:49;97890.79;;;12.95;32.41
61898;BME280;47850;50.274;18.908;2023-04-26T13:26:17;97892.66;;;13.04;32.32
61898;BME280;47850;50.274;18.908;2023-04-26T13:28:45;97890.22;;;13.11;31.16